createdAt,value
2018-06-16T00:00:18.175Z,13.65
2018-06-16T00:01:18.197Z,13.64
2018-06-16T00:02:17.456Z,13.65
2018-06-16T00:03:17.718Z,13.64
2018-06-16T00:04:17.992Z,13.65
2018-06-16T00:05:18.251Z,13.67
2018-06-16T00:06:17.508Z,13.70
2018-06-16T00:07:17.778Z,13.74
2018-06-16T00:08:18.048Z,13.73
2018-06-16T00:09:18.352Z,13.73
2018-06-16T00:10:17.682Z,13.73
2018-06-16T00:11:17.670Z,13.73
2018-06-16T00:12:17.927Z,13.73
2018-06-16T00:13:18.189Z,13.74
2018-06-16T00:14:17.443Z,13.74
2018-06-16T00:15:17.700Z,13.74
2018-06-16T00:16:17.958Z,13.70
2018-06-16T00:17:18.219Z,13.70
2018-06-16T00:18:17.483Z,13.65
2018-06-16T00:19:17.747Z,13.67
2018-06-16T00:20:18.021Z,13.64
2018-06-16T00:21:18.071Z,13.63
2018-06-16T00:22:17.339Z,13.64
2018-06-16T00:23:17.602Z,13.63
2018-06-16T00:24:17.863Z,13.63
2018-06-16T00:25:18.124Z,13.61
2018-06-16T00:26:17.384Z,13.58
2018-06-16T00:27:17.647Z,13.57
2018-06-16T00:28:17.895Z,13.57
2018-06-16T00:29:18.162Z,13.54
2018-06-16T00:30:17.439Z,13.54
2018-06-16T00:31:17.482Z,13.53
2018-06-16T00:32:17.744Z,13.51
2018-06-16T00:33:18.002Z,13.51
2018-06-16T00:34:18.308Z,13.51
2018-06-16T00:35:17.587Z,13.51
2018-06-16T00:36:17.856Z,13.51
2018-06-16T00:37:18.121Z,13.49
2018-06-16T00:38:17.385Z,13.49
2018-06-16T00:39:17.646Z,13.44
2018-06-16T00:40:17.911Z,13.42
2018-06-16T00:41:17.993Z,13.42
2018-06-16T00:42:17.401Z,13.37
2018-06-16T00:43:17.667Z,13.34
2018-06-16T00:44:17.932Z,13.36
2018-06-16T00:45:18.528Z,13.34
2018-06-16T00:46:17.791Z,13.33
2018-06-16T00:47:18.054Z,13.33
2018-06-16T00:48:18.329Z,13.27
2018-06-16T00:49:17.590Z,13.29
2018-06-16T00:50:17.863Z,13.22
2018-06-16T00:51:17.910Z,13.19
2018-06-16T00:52:18.168Z,13.16
2018-06-16T00:53:17.425Z,13.12
2018-06-16T00:54:17.685Z,13.09
2018-06-16T00:55:17.951Z,13.08
2018-06-16T00:56:18.213Z,13.06
2018-06-16T00:57:17.483Z,13.06
2018-06-16T00:58:17.735Z,13.06
2018-06-16T00:59:17.999Z,13.05
2018-06-16T01:00:18.278Z,13.05
2018-06-16T01:01:18.319Z,13.02
2018-06-16T01:02:17.576Z,13.02
2018-06-16T01:03:17.831Z,13.01
2018-06-16T01:04:18.088Z,13.01
2018-06-16T01:05:17.348Z,13.01
2018-06-16T01:06:17.617Z,12.98
2018-06-16T01:07:17.879Z,12.94
2018-06-16T01:08:18.142Z,12.96
2018-06-16T01:09:17.406Z,12.98
2018-06-16T01:10:17.673Z,12.96
2018-06-16T01:11:17.700Z,12.92
2018-06-16T01:12:17.951Z,12.91
2018-06-16T01:13:18.210Z,12.85
2018-06-16T01:14:17.479Z,12.79
2018-06-16T01:15:17.743Z,12.78
2018-06-16T01:16:18.043Z,12.78
2018-06-16T01:17:18.338Z,12.72
2018-06-16T01:18:17.598Z,12.71
2018-06-16T01:19:17.861Z,12.66
2018-06-16T01:20:18.125Z,12.58
2018-06-16T01:21:18.168Z,12.57
2018-06-16T01:22:17.429Z,12.49
2018-06-16T01:23:18.010Z,12.44
2018-06-16T01:24:18.278Z,12.40
2018-06-16T01:25:17.538Z,12.39
2018-06-16T01:26:17.818Z,12.33
2018-06-16T01:27:18.097Z,12.33
2018-06-16T01:28:17.357Z,12.29
2018-06-16T01:29:17.624Z,12.23
2018-06-16T01:30:17.890Z,12.20
2018-06-16T01:31:17.923Z,12.19
2018-06-16T01:32:18.190Z,12.16
2018-06-16T01:33:17.443Z,12.13
2018-06-16T01:34:17.699Z,12.11
2018-06-16T01:35:17.949Z,12.06
2018-06-16T01:36:18.225Z,12.05
2018-06-16T01:37:17.487Z,12.02
2018-06-16T01:38:17.770Z,12.01
2018-06-16T01:39:18.037Z,12.01
2018-06-16T01:40:18.301Z,11.99
2018-06-16T01:41:17.354Z,11.98
2018-06-16T01:42:17.617Z,11.99
2018-06-16T01:43:17.883Z,11.98
2018-06-16T01:44:18.146Z,11.98
2018-06-16T01:45:17.413Z,11.95
2018-06-16T01:46:17.713Z,11.92
2018-06-16T01:47:17.970Z,11.92
2018-06-16T01:48:18.201Z,11.92
2018-06-16T01:49:17.466Z,11.93
2018-06-16T01:50:17.765Z,11.92
2018-06-16T01:51:17.784Z,11.92
2018-06-16T01:52:18.337Z,11.89
2018-06-16T01:53:17.593Z,11.88
2018-06-16T01:54:17.854Z,11.86
2018-06-16T01:55:18.122Z,11.89
2018-06-16T01:56:17.381Z,11.89
2018-06-16T01:57:17.641Z,11.88
2018-06-16T01:58:17.906Z,11.86
2018-06-16T01:59:18.173Z,11.85
2018-06-16T02:00:17.436Z,11.82
2018-06-16T02:01:17.477Z,11.81
2018-06-16T02:02:17.740Z,11.77
2018-06-16T02:03:18.002Z,11.75
2018-06-16T02:04:18.274Z,11.77
2018-06-16T02:05:17.542Z,11.74
2018-06-16T02:06:17.798Z,11.72
2018-06-16T02:07:18.066Z,11.72
2018-06-16T02:08:18.323Z,11.68
2018-06-16T02:09:17.578Z,11.68
2018-06-16T02:10:17.863Z,11.67
2018-06-16T02:11:17.895Z,11.67
2018-06-16T02:12:18.149Z,11.64
2018-06-16T02:13:17.397Z,11.63
2018-06-16T02:14:17.656Z,11.61
2018-06-16T02:15:17.919Z,11.55
2018-06-16T02:16:18.178Z,11.55
2018-06-16T02:17:17.437Z,11.53
2018-06-16T02:18:17.696Z,11.53
2018-06-16T02:19:17.952Z,11.49
2018-06-16T02:20:18.209Z,11.49
2018-06-16T02:21:18.238Z,11.47
2018-06-16T02:22:17.505Z,11.44
2018-06-16T02:23:18.025Z,11.43
2018-06-16T02:24:18.294Z,11.42
2018-06-16T02:25:17.563Z,11.42
2018-06-16T02:26:17.826Z,11.40
2018-06-16T02:27:18.086Z,11.37
2018-06-16T02:28:17.344Z,11.37
2018-06-16T02:29:17.625Z,11.36
2018-06-16T02:30:17.915Z,11.33
2018-06-16T02:31:17.932Z,11.34
2018-06-16T02:32:18.205Z,11.33
2018-06-16T02:33:17.454Z,11.33
2018-06-16T02:34:17.728Z,11.31
2018-06-16T02:35:17.988Z,11.31
2018-06-16T02:36:18.257Z,11.29
2018-06-16T02:37:17.524Z,11.30
2018-06-16T02:38:17.797Z,11.33
2018-06-16T02:39:18.062Z,11.29
2018-06-16T02:40:18.336Z,11.26
2018-06-16T02:41:17.364Z,11.22
2018-06-16T02:42:17.642Z,11.20
2018-06-16T02:43:17.904Z,11.17
2018-06-16T02:44:18.184Z,11.13
2018-06-16T02:45:17.458Z,11.16
2018-06-16T02:46:17.722Z,11.17
2018-06-16T02:47:17.994Z,11.10
2018-06-16T02:48:18.287Z,11.07
2018-06-16T02:49:17.552Z,11.09
2018-06-16T02:50:17.893Z,11.07
2018-06-16T02:51:17.871Z,11.06
2018-06-16T02:52:18.141Z,11.05
2018-06-16T02:53:17.404Z,11.03
2018-06-16T02:54:17.722Z,11.03
2018-06-16T02:55:17.992Z,11.06
2018-06-16T02:56:18.263Z,11.10
2018-06-16T02:57:17.525Z,11.10
2018-06-16T02:58:17.798Z,11.12
2018-06-16T02:59:18.063Z,11.13
2018-06-16T03:00:18.354Z,11.12
2018-06-16T03:01:17.387Z,11.13
2018-06-16T03:02:17.662Z,11.15
2018-06-16T03:03:17.982Z,11.13
2018-06-16T03:04:18.342Z,11.13
2018-06-16T03:05:17.608Z,11.12
2018-06-16T03:06:18.136Z,11.13
2018-06-16T03:07:17.397Z,11.13
2018-06-16T03:08:17.660Z,11.12
2018-06-16T03:09:18.217Z,11.12
2018-06-16T03:10:17.489Z,11.09
2018-06-16T03:11:17.532Z,11.12
2018-06-16T03:12:17.794Z,11.09
2018-06-16T03:13:18.064Z,11.07
2018-06-16T03:14:18.327Z,11.05
2018-06-16T03:15:17.586Z,11.02
2018-06-16T03:16:17.876Z,11.00
2018-06-16T03:17:18.136Z,11.00
2018-06-16T03:18:17.398Z,11.00
2018-06-16T03:19:17.658Z,11.03
2018-06-16T03:20:17.928Z,11.03
2018-06-16T03:21:17.964Z,11.05
2018-06-16T03:22:18.241Z,11.05
2018-06-16T03:23:17.509Z,11.06
2018-06-16T03:24:17.773Z,11.06
2018-06-16T03:25:18.039Z,11.05
2018-06-16T03:26:18.304Z,11.00
2018-06-16T03:27:17.569Z,10.98
2018-06-16T03:28:17.838Z,10.98
2018-06-16T03:29:18.100Z,10.92
2018-06-16T03:30:17.370Z,10.95
2018-06-16T03:31:17.427Z,10.92
2018-06-16T03:32:17.692Z,10.92
2018-06-16T03:33:17.953Z,10.92
2018-06-16T03:34:18.212Z,10.96
2018-06-16T03:35:17.473Z,10.95
2018-06-16T03:36:17.773Z,10.98
2018-06-16T03:37:18.076Z,10.96
2018-06-16T03:38:18.334Z,10.92
2018-06-16T03:39:17.612Z,10.91
2018-06-16T03:40:17.887Z,10.87
2018-06-16T03:41:17.922Z,10.88
2018-06-16T03:42:18.178Z,10.87
2018-06-16T03:43:17.441Z,10.85
2018-06-16T03:44:17.700Z,10.85
2018-06-16T03:45:17.957Z,10.87
2018-06-16T03:46:18.215Z,10.82
2018-06-16T03:47:17.480Z,10.82
2018-06-16T03:48:17.754Z,10.82
2018-06-16T03:49:18.012Z,10.82
2018-06-16T03:50:18.277Z,10.84
2018-06-16T03:51:18.335Z,10.85
2018-06-16T03:52:17.594Z,10.82
2018-06-16T03:53:17.863Z,10.84
2018-06-16T03:54:18.122Z,10.85
2018-06-16T03:55:17.400Z,10.91
2018-06-16T03:56:17.657Z,10.92
2018-06-16T03:57:17.925Z,10.91
2018-06-16T03:58:18.190Z,10.91
2018-06-16T03:59:17.457Z,10.91
2018-06-16T04:00:17.739Z,10.96
2018-06-16T04:01:17.781Z,10.99
2018-06-16T04:02:18.043Z,11.02
2018-06-16T04:03:18.309Z,10.96
2018-06-16T04:04:17.573Z,11.02
2018-06-16T04:05:17.836Z,11.06
2018-06-16T04:06:18.098Z,11.05
2018-06-16T04:07:17.373Z,11.03
2018-06-16T04:08:17.642Z,11.06
2018-06-16T04:09:17.898Z,11.07
2018-06-16T04:10:18.159Z,11.12
2018-06-16T04:11:18.204Z,11.13
2018-06-16T04:12:17.463Z,11.16
2018-06-16T04:13:17.725Z,11.19
2018-06-16T04:14:17.991Z,11.22
2018-06-16T04:15:18.249Z,11.25
2018-06-16T04:16:17.512Z,11.27
2018-06-16T04:17:17.777Z,11.27
2018-06-16T04:18:18.042Z,11.30
2018-06-16T04:19:18.310Z,11.30
2018-06-16T04:20:17.568Z,11.34
2018-06-16T04:21:17.632Z,11.34
2018-06-16T04:22:17.891Z,11.36
2018-06-16T04:23:18.161Z,11.39
2018-06-16T04:24:17.418Z,11.40
2018-06-16T04:25:17.685Z,11.44
2018-06-16T04:26:17.984Z,11.46
2018-06-16T04:27:18.243Z,11.51
2018-06-16T04:28:17.502Z,11.54
2018-06-16T04:29:17.767Z,11.58
2018-06-16T04:30:18.041Z,11.58
2018-06-16T04:31:18.090Z,11.61
2018-06-16T04:32:17.342Z,11.65
2018-06-16T04:33:17.602Z,11.71
2018-06-16T04:34:17.861Z,11.75
2018-06-16T04:35:18.136Z,11.77
2018-06-16T04:36:17.554Z,11.84
2018-06-16T04:37:17.811Z,11.84
2018-06-16T04:38:18.066Z,11.92
2018-06-16T04:39:18.316Z,11.95
2018-06-16T04:40:17.575Z,11.99
2018-06-16T04:41:17.621Z,11.99
2018-06-16T04:42:17.907Z,12.06
2018-06-16T04:43:18.178Z,12.06
2018-06-16T04:44:17.435Z,12.13
2018-06-16T04:45:17.701Z,12.13
2018-06-16T04:46:17.960Z,12.23
2018-06-16T04:47:18.222Z,12.25
2018-06-16T04:48:17.477Z,12.32
2018-06-16T04:49:17.752Z,12.37
2018-06-16T04:50:18.024Z,12.44
2018-06-16T04:51:18.060Z,12.50
2018-06-16T04:52:18.334Z,12.53
2018-06-16T04:53:17.603Z,12.58
2018-06-16T04:54:17.864Z,12.60
2018-06-16T04:55:18.128Z,12.66
2018-06-16T04:56:17.370Z,12.68
2018-06-16T04:57:17.631Z,12.71
2018-06-16T04:58:17.889Z,12.77
2018-06-16T04:59:18.151Z,12.81
2018-06-16T05:00:17.455Z,12.88
2018-06-16T05:01:17.497Z,12.92
2018-06-16T05:02:17.767Z,12.95
2018-06-16T05:03:18.030Z,12.95
2018-06-16T05:04:18.288Z,13.06
2018-06-16T05:05:17.552Z,13.11
2018-06-16T05:06:17.811Z,13.16
2018-06-16T05:07:18.064Z,13.19
2018-06-16T05:08:18.328Z,13.23
2018-06-16T05:09:17.613Z,13.26
2018-06-16T05:10:17.894Z,13.29
2018-06-16T05:11:17.916Z,13.33
2018-06-16T05:12:18.177Z,13.36
2018-06-16T05:13:17.443Z,13.37
2018-06-16T05:14:17.705Z,13.42
2018-06-16T05:15:17.967Z,13.46
2018-06-16T05:16:18.225Z,13.47
2018-06-16T05:17:17.485Z,13.50
2018-06-16T05:18:17.750Z,13.55
2018-06-16T05:19:18.007Z,13.60
2018-06-16T05:20:18.286Z,13.65
2018-06-16T05:21:18.307Z,13.65
2018-06-16T05:22:17.566Z,13.70
2018-06-16T05:23:17.823Z,13.71
2018-06-16T05:24:18.080Z,13.80
2018-06-16T05:25:18.343Z,13.80
2018-06-16T05:26:17.603Z,13.87
2018-06-16T05:27:17.884Z,13.94
2018-06-16T05:28:18.170Z,13.95
2018-06-16T05:29:17.431Z,13.98
2018-06-16T05:30:17.698Z,14.01
2018-06-16T05:31:17.745Z,14.02
2018-06-16T05:32:18.007Z,14.08
2018-06-16T05:33:18.266Z,14.11
2018-06-16T05:34:17.530Z,14.13
2018-06-16T05:35:17.810Z,14.18
2018-06-16T05:36:18.084Z,14.22
2018-06-16T05:37:18.344Z,14.28
2018-06-16T05:38:17.653Z,14.35
2018-06-16T05:39:17.984Z,14.40
2018-06-16T05:40:18.270Z,14.43
2018-06-16T05:41:18.303Z,14.50
2018-06-16T05:42:17.569Z,14.53
2018-06-16T05:43:17.836Z,14.55
2018-06-16T05:44:18.104Z,14.60
2018-06-16T05:45:17.361Z,14.67
2018-06-16T05:46:17.612Z,14.73
2018-06-16T05:47:17.886Z,14.77
2018-06-16T05:48:18.147Z,14.80
2018-06-16T05:49:17.411Z,14.80
2018-06-16T05:50:17.682Z,14.85
2018-06-16T05:51:17.721Z,14.90
2018-06-16T05:52:17.980Z,14.95
2018-06-16T05:53:18.243Z,14.99
2018-06-16T05:54:17.496Z,14.99
2018-06-16T05:55:17.776Z,15.08
2018-06-16T05:56:18.038Z,15.06
2018-06-16T05:57:18.291Z,15.16
2018-06-16T05:58:17.550Z,15.16
2018-06-16T05:59:17.817Z,15.26
2018-06-16T06:00:18.089Z,15.29
2018-06-16T06:01:18.127Z,15.36
2018-06-16T06:02:17.392Z,15.39
2018-06-16T06:03:17.913Z,15.42
2018-06-16T06:04:18.174Z,15.52
2018-06-16T06:05:17.432Z,15.56
2018-06-16T06:06:18.006Z,15.57
2018-06-16T06:07:18.273Z,15.64
2018-06-16T06:08:17.536Z,15.69
2018-06-16T06:09:17.795Z,15.77
2018-06-16T06:10:18.083Z,15.76
2018-06-16T06:11:18.092Z,15.84
2018-06-16T06:12:17.351Z,15.94
2018-06-16T06:13:17.610Z,15.97
2018-06-16T06:14:17.877Z,16.00
2018-06-16T06:15:18.142Z,16.08
2018-06-16T06:16:17.405Z,16.09
2018-06-16T06:17:17.930Z,16.15
2018-06-16T06:18:18.185Z,16.17
2018-06-16T06:19:17.442Z,16.21
2018-06-16T06:20:17.708Z,16.21
2018-06-16T06:21:17.750Z,16.28
2018-06-16T06:22:18.005Z,16.32
2018-06-16T06:23:18.260Z,16.38
2018-06-16T06:24:17.518Z,16.39
2018-06-16T06:25:17.777Z,16.43
2018-06-16T06:26:18.033Z,16.46
2018-06-16T06:27:18.306Z,16.53
2018-06-16T06:28:17.564Z,16.53
2018-06-16T06:29:17.816Z,16.64
2018-06-16T06:30:18.081Z,16.80
2018-06-16T06:31:18.140Z,16.88
2018-06-16T06:32:17.398Z,16.87
2018-06-16T06:33:17.650Z,16.91
2018-06-16T06:34:17.910Z,16.91
2018-06-16T06:35:18.163Z,16.97
2018-06-16T06:36:17.424Z,16.94
2018-06-16T06:37:17.686Z,17.00
2018-06-16T06:38:17.955Z,17.10
2018-06-16T06:39:18.215Z,17.13
2018-06-16T06:40:17.483Z,17.13
2018-06-16T06:41:17.527Z,17.13
2018-06-16T06:42:17.786Z,17.18
2018-06-16T06:43:18.049Z,17.19
2018-06-16T06:44:18.306Z,17.19
2018-06-16T06:45:17.565Z,17.19
2018-06-16T06:46:17.831Z,17.25
2018-06-16T06:47:18.092Z,17.24
2018-06-16T06:48:17.361Z,17.35
2018-06-16T06:49:17.623Z,17.46
2018-06-16T06:50:17.901Z,17.54
2018-06-16T06:51:17.917Z,17.59
2018-06-16T06:52:18.173Z,17.57
2018-06-16T06:53:17.429Z,17.62
2018-06-16T06:54:17.686Z,17.73
2018-06-16T06:55:17.944Z,17.73
2018-06-16T06:56:18.209Z,17.76
2018-06-16T06:57:17.466Z,17.76
2018-06-16T06:58:17.726Z,17.79
2018-06-16T06:59:17.990Z,17.89
2018-06-16T07:00:18.270Z,18.17
2018-06-16T07:01:18.300Z,18.24
2018-06-16T07:02:17.572Z,18.17
2018-06-16T07:03:17.830Z,18.22
2018-06-16T07:04:18.100Z,18.35
2018-06-16T07:05:17.360Z,18.44
2018-06-16T07:06:17.623Z,18.45
2018-06-16T07:07:17.886Z,18.45
2018-06-16T07:08:18.149Z,18.48
2018-06-16T07:09:17.640Z,18.48
2018-06-16T07:10:17.900Z,18.51
2018-06-16T07:11:17.932Z,18.52
2018-06-16T07:12:18.191Z,18.58
2018-06-16T07:13:17.447Z,18.56
2018-06-16T07:14:17.715Z,18.59
2018-06-16T07:15:17.969Z,18.67
2018-06-16T07:16:18.228Z,18.83
2018-06-16T07:17:17.493Z,18.80
2018-06-16T07:18:17.759Z,18.88
2018-06-16T07:19:18.012Z,18.93
2018-06-16T07:20:18.275Z,19.01
2018-06-16T07:21:18.310Z,19.03
2018-06-16T07:22:17.571Z,19.03
2018-06-16T07:23:17.827Z,18.97
2018-06-16T07:24:18.094Z,19.10
2018-06-16T07:25:17.352Z,19.15
2018-06-16T07:26:17.605Z,19.24
2018-06-16T07:27:17.873Z,19.34
2018-06-16T07:28:18.133Z,19.28
2018-06-16T07:29:17.423Z,19.27
2018-06-16T07:30:17.809Z,19.37
2018-06-16T07:31:17.852Z,19.45
2018-06-16T07:32:18.115Z,19.51
2018-06-16T07:33:17.368Z,19.68
2018-06-16T07:34:17.627Z,19.66
2018-06-16T07:35:17.902Z,19.65
2018-06-16T07:36:18.164Z,19.73
2018-06-16T07:37:17.439Z,19.79
2018-06-16T07:38:17.691Z,19.93
2018-06-16T07:39:17.949Z,19.94
2018-06-16T07:40:18.201Z,19.99
2018-06-16T07:41:18.283Z,20.03
2018-06-16T07:42:17.545Z,20.04
2018-06-16T07:43:17.808Z,20.07
2018-06-16T07:44:18.070Z,20.00
2018-06-16T07:45:18.333Z,20.03
2018-06-16T07:46:17.587Z,19.99
2018-06-16T07:47:17.855Z,20.17
2018-06-16T07:48:18.111Z,20.25
2018-06-16T07:49:17.364Z,20.37
2018-06-16T07:50:17.634Z,20.32
2018-06-16T07:51:17.657Z,20.28
2018-06-16T07:52:17.918Z,20.38
2018-06-16T07:53:18.174Z,20.46
2018-06-16T07:54:17.448Z,20.75
2018-06-16T07:55:17.707Z,20.83
2018-06-16T07:56:17.968Z,20.80
2018-06-16T07:57:18.228Z,20.78
2018-06-16T07:58:17.527Z,20.89
2018-06-16T07:59:17.807Z,20.89
2018-06-16T08:00:18.068Z,20.83
2018-06-16T08:01:18.150Z,20.79
2018-06-16T08:02:17.399Z,20.82
2018-06-16T08:03:17.664Z,20.80
2018-06-16T08:04:17.916Z,21.37
2018-06-16T08:05:18.177Z,21.52
2018-06-16T08:06:17.432Z,21.45
2018-06-16T08:07:17.693Z,21.37
2018-06-16T08:08:17.952Z,21.27
2018-06-16T08:09:18.215Z,21.31
2018-06-16T08:10:17.489Z,21.48
2018-06-16T08:11:17.534Z,21.68
2018-06-16T08:12:17.789Z,21.82
2018-06-16T08:13:18.053Z,21.80
2018-06-16T08:14:18.287Z,21.76
2018-06-16T08:15:17.541Z,21.76
2018-06-16T08:16:17.809Z,22.13
2018-06-16T08:17:18.085Z,22.24
2018-06-16T08:18:17.353Z,22.10
2018-06-16T08:19:17.617Z,22.15
2018-06-16T08:20:17.893Z,22.33
2018-06-16T08:21:17.919Z,22.45
2018-06-16T08:22:18.175Z,22.50
2018-06-16T08:23:17.435Z,22.45
2018-06-16T08:24:17.699Z,22.92
2018-06-16T08:25:17.955Z,23.18
2018-06-16T08:26:18.218Z,23.41
2018-06-16T08:27:17.473Z,23.50
2018-06-16T08:28:17.733Z,23.84
2018-06-16T08:29:18.005Z,24.06
2018-06-16T08:30:18.276Z,24.19
2018-06-16T08:31:18.322Z,24.30
2018-06-16T08:32:17.584Z,24.68
2018-06-16T08:33:17.850Z,24.78
2018-06-16T08:34:18.109Z,24.92
2018-06-16T08:35:17.364Z,25.08
2018-06-16T08:36:17.623Z,25.28
2018-06-16T08:37:17.888Z,25.09
2018-06-16T08:38:18.149Z,25.02
2018-06-16T08:39:17.410Z,25.15
2018-06-16T08:40:17.673Z,24.95
2018-06-16T08:41:17.727Z,25.04
2018-06-16T08:42:17.986Z,25.30
2018-06-16T08:43:18.329Z,25.40
2018-06-16T08:44:17.773Z,25.11
2018-06-16T08:45:18.051Z,24.88
2018-06-16T08:46:18.313Z,24.98
2018-06-16T08:47:17.573Z,25.21
2018-06-16T08:48:17.841Z,24.82
2018-06-16T08:49:18.099Z,24.67
2018-06-16T08:50:17.357Z,24.33
2018-06-16T08:51:17.409Z,24.68
2018-06-16T08:52:17.676Z,24.95
2018-06-16T08:53:17.942Z,25.15
2018-06-16T08:54:18.222Z,25.49
2018-06-16T08:55:17.496Z,25.62
2018-06-16T08:56:17.859Z,25.73
2018-06-16T08:57:18.116Z,25.64
2018-06-16T08:58:17.373Z,25.50
2018-06-16T08:59:17.626Z,25.66
2018-06-16T09:00:17.902Z,26.27
2018-06-16T09:01:17.934Z,26.08
2018-06-16T09:02:18.197Z,26.24
2018-06-16T09:03:17.461Z,26.24
2018-06-16T09:04:17.718Z,25.77
2018-06-16T09:05:18.006Z,25.73
2018-06-16T09:06:18.268Z,25.07
2018-06-16T09:07:17.525Z,25.23
2018-06-16T09:08:17.794Z,26.07
2018-06-16T09:09:18.047Z,25.87
2018-06-16T09:10:18.314Z,26.24
2018-06-16T09:11:17.369Z,25.84
2018-06-16T09:12:17.630Z,25.47
2018-06-16T09:13:17.893Z,24.84
2018-06-16T09:14:18.155Z,24.30
2018-06-16T09:15:17.966Z,24.01
2018-06-16T09:16:18.230Z,23.94
2018-06-16T09:17:17.496Z,23.89
2018-06-16T09:18:17.784Z,23.88
2018-06-16T09:19:18.052Z,23.94
2018-06-16T09:20:18.311Z,24.02
2018-06-16T09:21:17.380Z,23.77
2018-06-16T09:22:17.637Z,23.62
2018-06-16T09:23:17.895Z,23.37
2018-06-16T09:24:18.161Z,23.44
2018-06-16T09:25:17.431Z,23.62
2018-06-16T09:26:17.701Z,23.68
2018-06-16T09:27:17.967Z,23.61
2018-06-16T09:28:18.225Z,23.54
2018-06-16T09:29:17.491Z,23.57
2018-06-16T09:30:17.778Z,23.68
2018-06-16T09:31:17.809Z,23.84
2018-06-16T09:32:18.081Z,23.81
2018-06-16T09:33:18.341Z,23.62
2018-06-16T09:34:17.602Z,23.65
2018-06-16T09:35:17.879Z,23.81
2018-06-16T09:36:18.163Z,23.85
2018-06-16T09:37:17.602Z,23.91
2018-06-16T09:38:17.862Z,23.96
2018-06-16T09:39:18.131Z,24.27
2018-06-16T09:40:17.391Z,24.26
2018-06-16T09:41:17.442Z,24.36
2018-06-16T09:42:17.707Z,24.51
2018-06-16T09:43:17.968Z,24.74
2018-06-16T09:44:18.516Z,24.84
2018-06-16T09:45:17.780Z,25.02
2018-06-16T09:46:18.037Z,24.92
2018-06-16T09:47:18.291Z,24.64
2018-06-16T09:48:17.602Z,24.68
2018-06-16T09:49:17.931Z,24.59
2018-06-16T09:50:18.208Z,24.51
2018-06-16T09:51:18.239Z,24.53
2018-06-16T09:52:17.500Z,24.49
2018-06-16T09:53:17.759Z,24.35
2018-06-16T09:54:18.013Z,24.40
2018-06-16T09:55:18.274Z,24.16
2018-06-16T09:56:17.536Z,24.22
2018-06-16T09:57:17.840Z,24.27
2018-06-16T09:58:18.098Z,24.24
2018-06-16T09:59:17.378Z,24.17
2018-06-16T10:00:17.654Z,24.15
2018-06-16T10:01:17.714Z,24.24
2018-06-16T10:02:17.982Z,24.16
2018-06-16T10:03:18.295Z,24.13
2018-06-16T10:04:17.607Z,24.15
2018-06-16T10:05:17.874Z,24.08
2018-06-16T10:06:18.142Z,24.16
2018-06-16T10:07:17.411Z,24.13
2018-06-16T10:08:17.698Z,24.19
2018-06-16T10:09:17.970Z,24.17
2018-06-16T10:10:18.326Z,24.19
2018-06-16T10:11:18.343Z,24.16
2018-06-16T10:12:17.614Z,24.02
2018-06-16T10:13:17.885Z,23.98
2018-06-16T10:14:18.151Z,24.13
2018-06-16T10:15:17.414Z,24.20
2018-06-16T10:16:17.668Z,24.13
2018-06-16T10:17:17.932Z,24.08
2018-06-16T10:18:18.197Z,23.87
2018-06-16T10:19:17.460Z,23.85
2018-06-16T10:20:17.726Z,23.91
2018-06-16T10:21:17.824Z,24.01
2018-06-16T10:22:18.215Z,23.94
2018-06-16T10:23:17.475Z,23.95
2018-06-16T10:24:17.748Z,23.89
2018-06-16T10:25:18.009Z,23.83
2018-06-16T10:26:18.269Z,24.08
2018-06-16T10:27:17.531Z,24.11
2018-06-16T10:28:17.797Z,24.02
2018-06-16T10:29:18.063Z,24.09
2018-06-16T10:30:18.486Z,24.02
2018-06-16T10:31:17.392Z,24.01
2018-06-16T10:32:17.655Z,24.15
2018-06-16T10:33:17.916Z,24.26
2018-06-16T10:34:18.180Z,24.29
2018-06-16T10:35:17.446Z,24.23
2018-06-16T10:36:17.729Z,24.32
2018-06-16T10:37:18.023Z,24.44
2018-06-16T10:38:18.285Z,24.44
2018-06-16T10:39:17.551Z,24.53
2018-06-16T10:40:17.835Z,24.51
2018-06-16T10:41:17.873Z,24.61
2018-06-16T10:42:18.138Z,24.57
2018-06-16T10:43:17.407Z,24.71
2018-06-16T10:44:17.680Z,24.50
2018-06-16T10:45:17.945Z,24.36
2018-06-16T10:46:18.207Z,24.32
2018-06-16T10:47:17.475Z,24.42
2018-06-16T10:48:17.728Z,24.66
2018-06-16T10:49:17.988Z,24.50
2018-06-16T10:50:18.534Z,24.63
2018-06-16T10:51:18.300Z,24.71
2018-06-16T10:52:17.558Z,24.82
2018-06-16T10:53:17.824Z,24.86
2018-06-16T10:54:18.081Z,24.71
2018-06-16T10:55:18.340Z,24.87
2018-06-16T10:56:17.597Z,24.94
2018-06-16T10:57:17.861Z,24.55
2018-06-16T10:58:18.132Z,24.61
2018-06-16T10:59:17.394Z,24.59
2018-06-16T11:00:17.662Z,24.75
2018-06-16T11:01:17.707Z,25.01
2018-06-16T11:02:17.968Z,24.89
2018-06-16T11:03:18.233Z,24.78
2018-06-16T11:04:17.489Z,24.88
2018-06-16T11:05:17.747Z,25.18
2018-06-16T11:06:18.004Z,25.24
2018-06-16T11:07:18.265Z,25.26
2018-06-16T11:08:17.524Z,24.98
2018-06-16T11:09:17.820Z,25.02
2018-06-16T11:10:18.184Z,25.22
2018-06-16T11:11:18.228Z,25.09
2018-06-16T11:12:17.488Z,25.23
2018-06-16T11:13:17.751Z,25.12
2018-06-16T11:14:18.005Z,25.22
2018-06-16T11:15:18.651Z,25.37
2018-06-16T11:16:17.918Z,25.46
2018-06-16T11:17:18.186Z,25.45
2018-06-16T11:18:17.439Z,25.36
2018-06-16T11:19:17.705Z,25.30
2018-06-16T11:20:17.980Z,25.43
2018-06-16T11:21:18.025Z,25.36
2018-06-16T11:22:18.339Z,25.50
2018-06-16T11:23:17.607Z,25.11
2018-06-16T11:24:17.866Z,25.08
2018-06-16T11:25:18.125Z,24.89
2018-06-16T11:26:17.381Z,25.23
2018-06-16T11:27:17.640Z,25.32
2018-06-16T11:28:17.903Z,25.26
2018-06-16T11:29:18.160Z,24.87
2018-06-16T11:30:17.422Z,24.80
2018-06-16T11:31:17.465Z,25.22
2018-06-16T11:32:17.728Z,25.35
2018-06-16T11:33:17.983Z,25.33
2018-06-16T11:34:18.252Z,25.01
2018-06-16T11:35:17.520Z,24.92
2018-06-16T11:36:17.788Z,25.07
2018-06-16T11:37:18.045Z,25.35
2018-06-16T11:38:18.305Z,24.98
2018-06-16T11:39:17.568Z,25.09
2018-06-16T11:40:17.831Z,25.43
2018-06-16T11:41:17.871Z,25.46
2018-06-16T11:42:18.147Z,25.63
2018-06-16T11:43:17.404Z,25.80
2018-06-16T11:44:17.666Z,25.35
2018-06-16T11:45:17.922Z,25.33
2018-06-16T11:46:18.175Z,25.64
2018-06-16T11:47:17.430Z,26.04
2018-06-16T11:48:17.683Z,26.08
2018-06-16T11:49:17.942Z,25.80
2018-06-16T11:50:18.210Z,25.80
2018-06-16T11:51:18.258Z,25.74
2018-06-16T11:52:17.513Z,25.76
2018-06-16T11:53:17.802Z,25.70
2018-06-16T11:54:18.063Z,25.50
2018-06-16T11:55:18.329Z,25.40
2018-06-16T11:56:17.590Z,25.37
2018-06-16T11:57:17.847Z,25.80
2018-06-16T11:58:18.103Z,25.40
2018-06-16T11:59:17.358Z,24.61
2018-06-16T12:00:17.624Z,24.88
2018-06-16T12:01:17.689Z,25.57
2018-06-16T12:02:17.959Z,25.70
2018-06-16T12:03:18.221Z,26.07
2018-06-16T12:04:17.477Z,26.05
2018-06-16T12:05:17.735Z,25.97
2018-06-16T12:06:18.007Z,25.63
2018-06-16T12:07:18.314Z,25.64
2018-06-16T12:08:17.578Z,25.49
2018-06-16T12:09:17.844Z,25.59
2018-06-16T12:10:18.147Z,25.47
2018-06-16T12:11:18.162Z,25.09
2018-06-16T12:12:17.425Z,25.23
2018-06-16T12:13:17.690Z,25.42
2018-06-16T12:14:17.944Z,25.47
2018-06-16T12:15:18.206Z,25.72
2018-06-16T12:16:17.479Z,25.57
2018-06-16T12:17:17.738Z,25.67
2018-06-16T12:18:17.995Z,25.76
2018-06-16T12:19:18.261Z,26.07
2018-06-16T12:20:17.536Z,26.11
2018-06-16T12:21:17.575Z,26.28
2018-06-16T12:22:17.835Z,26.11
2018-06-16T12:23:18.099Z,25.74
2018-06-16T12:24:17.373Z,25.55
2018-06-16T12:25:17.639Z,25.64
2018-06-16T12:26:17.908Z,25.59
2018-06-16T12:27:18.162Z,25.77
2018-06-16T12:28:17.421Z,25.87
2018-06-16T12:29:17.685Z,25.98
2018-06-16T12:30:17.953Z,26.35
2018-06-16T12:31:18.003Z,26.28
2018-06-16T12:32:18.284Z,25.97
2018-06-16T12:33:17.544Z,25.83
2018-06-16T12:34:17.806Z,25.42
2018-06-16T12:35:18.065Z,26.04
2018-06-16T12:36:17.376Z,25.57
2018-06-16T12:37:17.639Z,25.21
2018-06-16T12:38:17.901Z,25.43
2018-06-16T12:39:18.175Z,25.56
2018-06-16T12:40:17.450Z,24.99
2018-06-16T12:41:17.481Z,24.75
2018-06-16T12:42:17.736Z,25.43
2018-06-16T12:43:18.001Z,25.64
2018-06-16T12:44:18.266Z,25.72
2018-06-16T12:45:17.522Z,25.35
2018-06-16T12:46:17.795Z,24.97
2018-06-16T12:47:18.054Z,24.54
2018-06-16T12:48:18.318Z,24.57
2018-06-16T12:49:17.587Z,24.72
2018-06-16T12:50:17.858Z,24.67
2018-06-16T12:51:17.911Z,25.36
2018-06-16T12:52:18.176Z,25.77